sensor_id;sensor_type;location;lat;lon;timestamp;P1;durP1;ratioP1;P2;durP2;ratioP2
46090;SDS011;31826;53.572;10.170;2022-12-29T00:02:12;6.60;;;3.00;;
46090;SDS011;31826;53.572;10.170;2022-12-29T00:04:38;6.05;;;2.42;;
46090;SDS011;31826;53.572;10.170;2022-12-29T00:07:04;5.20;;;2.80;;
46090;SDS011;31826;53.572;10.170;2022-12-29T00:09:30;6.05;;;3.20;;
46090;SDS011;31826;53.572;10.170;2022-12-29T00:11:57;6.30;;;3.03;;
46090;SDS011;31826;53.572;10.170;2022-12-29T00:14:23;5.72;;;2.88;;
46090;SDS011;31826;53.572;10.170;2022-12-29T00:17:07;7.47;;;3.10;;
46090;SDS011;31826;53.572;10.170;2022-12-29T00:19:33;6.57;;;2.63;;
46090;SDS011;31826;53.572;10.170;2022-12-29T00:22:17;5.35;;;2.80;;
46090;SDS011;31826;53.572;10.170;2022-12-29T00:25:02;5.70;;;2.80;;
46090;SDS011;31826;53.572;10.170;2022-12-29T00:27:47;8.05;;;3.17;;
46090;SDS011;31826;53.572;10.170;2022-12-29T00:30:31;4.03;;;2.20;;
46090;SDS011;31826;53.572;10.170;2022-12-29T00:33:17;5.03;;;2.70;;
46090;SDS011;31826;53.572;10.170;2022-12-29T00:36:04;5.60;;;3.00;;
46090;SDS011;31826;53.572;10.170;2022-12-29T00:38:59;5.60;;;2.88;;
46090;SDS011;31826;53.572;10.170;2022-12-29T00:41:55;5.78;;;3.03;;
46090;SDS011;31826;53.572;10.170;2022-12-29T00:44:40;6.10;;;2.93;;
46090;SDS011;31826;53.572;10.170;2022-12-29T00:47:05;6.23;;;3.00;;
46090;SDS011;31826;53.572;10.170;2022-12-29T00:49:31;7.63;;;3.20;;
46090;SDS011;31826;53.572;10.170;2022-12-29T00:54:28;7.57;;;3.28;;
46090;SDS011;31826;53.572;10.170;2022-12-29T00:56:56;8.30;;;3.33;;
46090;SDS011;31826;53.572;10.170;2022-12-29T00:59:22;8.00;;;3.87;;
46090;SDS011;31826;53.572;10.170;2022-12-29T01:01:49;7.10;;;3.28;;
46090;SDS011;31826;53.572;10.170;2022-12-29T01:04:16;6.93;;;3.60;;
46090;SDS011;31826;53.572;10.170;2022-12-29T01:06:42;5.70;;;3.08;;
46090;SDS011;31826;53.572;10.170;2022-12-29T01:09:08;6.57;;;3.20;;
46090;SDS011;31826;53.572;10.170;2022-12-29T01:11:54;6.03;;;3.20;;
46090;SDS011;31826;53.572;10.170;2022-12-29T01:14:20;7.15;;;3.40;;
46090;SDS011;31826;53.572;10.170;2022-12-29T01:16:47;6.90;;;3.50;;
46090;SDS011;31826;53.572;10.170;2022-12-29T01:19:13;7.07;;;3.20;;
46090;SDS011;31826;53.572;10.170;2022-12-29T01:21:39;6.38;;;2.97;;
46090;SDS011;31826;53.572;10.170;2022-12-29T01:24:05;6.85;;;3.10;;
46090;SDS011;31826;53.572;10.170;2022-12-29T01:26:31;6.78;;;2.88;;
46090;SDS011;31826;53.572;10.170;2022-12-29T01:28:56;6.03;;;2.88;;
46090;SDS011;31826;53.572;10.170;2022-12-29T01:31:22;5.63;;;2.72;;
46090;SDS011;31826;53.572;10.170;2022-12-29T01:33:48;5.67;;;2.80;;
46090;SDS011;31826;53.572;10.170;2022-12-29T01:36:14;5.63;;;3.00;;
46090;SDS011;31826;53.572;10.170;2022-12-29T01:38:41;5.78;;;3.05;;
46090;SDS011;31826;53.572;10.170;2022-12-29T01:41:08;5.63;;;2.92;;
46090;SDS011;31826;53.572;10.170;2022-12-29T01:43:43;5.35;;;3.17;;
46090;SDS011;31826;53.572;10.170;2022-12-29T01:51:35;5.20;;;2.75;;
46090;SDS011;31826;53.572;10.170;2022-12-29T01:54:24;6.75;;;3.10;;
46090;SDS011;31826;53.572;10.170;2022-12-29T01:56:53;5.20;;;2.80;;
46090;SDS011;31826;53.572;10.170;2022-12-29T01:59:22;7.17;;;3.17;;
46090;SDS011;31826;53.572;10.170;2022-12-29T02:01:51;5.97;;;3.00;;
46090;SDS011;31826;53.572;10.170;2022-12-29T02:04:16;6.47;;;3.30;;
46090;SDS011;31826;53.572;10.170;2022-12-29T02:06:48;8.70;;;3.50;;
46090;SDS011;31826;53.572;10.170;2022-12-29T02:09:20;5.37;;;2.90;;
46090;SDS011;31826;53.572;10.170;2022-12-29T02:11:48;6.63;;;3.28;;
46090;SDS011;31826;53.572;10.170;2022-12-29T02:14:14;6.77;;;3.40;;
46090;SDS011;31826;53.572;10.170;2022-12-29T02:35:36;6.68;;;3.40;;
46090;SDS011;31826;53.572;10.170;2022-12-29T02:41:07;6.32;;;3.00;;
46090;SDS011;31826;53.572;10.170;2022-12-29T02:44:02;5.88;;;3.00;;
46090;SDS011;31826;53.572;10.170;2022-12-29T02:47:05;5.53;;;2.85;;
46090;SDS011;31826;53.572;10.170;2022-12-29T02:52:28;6.40;;;2.90;;
46090;SDS011;31826;53.572;10.170;2022-12-29T02:55:16;6.55;;;3.35;;
46090;SDS011;31826;53.572;10.170;2022-12-29T02:57:42;6.32;;;3.30;;
46090;SDS011;31826;53.572;10.170;2022-12-29T03:00:08;6.45;;;3.58;;
46090;SDS011;31826;53.572;10.170;2022-12-29T03:10:41;6.72;;;3.08;;
46090;SDS011;31826;53.572;10.170;2022-12-29T03:13:32;6.10;;;3.00;;
46090;SDS011;31826;53.572;10.170;2022-12-29T03:16:23;7.78;;;3.40;;
46090;SDS011;31826;53.572;10.170;2022-12-29T03:19:09;6.65;;;3.10;;
46090;SDS011;31826;53.572;10.170;2022-12-29T03:22:17;7.38;;;2.90;;
46090;SDS011;31826;53.572;10.170;2022-12-29T03:24:59;6.90;;;2.92;;
46090;SDS011;31826;53.572;10.170;2022-12-29T03:27:30;4.88;;;2.60;;
46090;SDS011;31826;53.572;10.170;2022-12-29T03:30:20;5.97;;;2.70;;
46090;SDS011;31826;53.572;10.170;2022-12-29T03:32:48;5.95;;;2.85;;
46090;SDS011;31826;53.572;10.170;2022-12-29T03:35:22;6.65;;;2.80;;
46090;SDS011;31826;53.572;10.170;2022-12-29T03:40:58;4.53;;;2.40;;
46090;SDS011;31826;53.572;10.170;2022-12-29T03:43:26;7.00;;;2.55;;
46090;SDS011;31826;53.572;10.170;2022-12-29T03:45:52;5.85;;;2.70;;
46090;SDS011;31826;53.572;10.170;2022-12-29T03:48:18;6.00;;;2.40;;
46090;SDS011;31826;53.572;10.170;2022-12-29T03:50:43;9.18;;;2.92;;
46090;SDS011;31826;53.572;10.170;2022-12-29T03:53:09;4.30;;;2.40;;
46090;SDS011;31826;53.572;10.170;2022-12-29T03:55:35;4.00;;;2.38;;
46090;SDS011;31826;53.572;10.170;2022-12-29T03:58:01;6.20;;;2.30;;
46090;SDS011;31826;53.572;10.170;2022-12-29T04:00:26;4.38;;;2.40;;
46090;SDS011;31826;53.572;10.170;2022-12-29T04:02:53;4.88;;;2.20;;
46090;SDS011;31826;53.572;10.170;2022-12-29T04:05:19;3.63;;;2.33;;
46090;SDS011;31826;53.572;10.170;2022-12-29T04:07:46;7.03;;;2.38;;
46090;SDS011;31826;53.572;10.170;2022-12-29T04:10:11;5.63;;;2.40;;
46090;SDS011;31826;53.572;10.170;2022-12-29T04:12:37;3.63;;;1.90;;
46090;SDS011;31826;53.572;10.170;2022-12-29T04:15:03;4.03;;;2.10;;
46090;SDS011;31826;53.572;10.170;2022-12-29T04:17:29;4.85;;;1.92;;
46090;SDS011;31826;53.572;10.170;2022-12-29T04:19:55;4.05;;;2.00;;
46090;SDS011;31826;53.572;10.170;2022-12-29T04:22:40;3.83;;;1.90;;
46090;SDS011;31826;53.572;10.170;2022-12-29T04:25:06;4.87;;;2.30;;
46090;SDS011;31826;53.572;10.170;2022-12-29T04:27:32;3.63;;;2.17;;
46090;SDS011;31826;53.572;10.170;2022-12-29T04:29:58;4.75;;;2.20;;
46090;SDS011;31826;53.572;10.170;2022-12-29T04:32:23;3.73;;;2.10;;
46090;SDS011;31826;53.572;10.170;2022-12-29T04:34:49;3.50;;;2.00;;
46090;SDS011;31826;53.572;10.170;2022-12-29T04:37:15;2.83;;;1.73;;
46090;SDS011;31826;53.572;10.170;2022-12-29T04:39:41;4.50;;;2.10;;
46090;SDS011;31826;53.572;10.170;2022-12-29T04:42:06;3.42;;;2.00;;
46090;SDS011;31826;53.572;10.170;2022-12-29T04:44:32;4.18;;;2.08;;
46090;SDS011;31826;53.572;10.170;2022-12-29T04:46:58;3.75;;;1.75;;
46090;SDS011;31826;53.572;10.170;2022-12-29T04:49:23;4.05;;;1.90;;
46090;SDS011;31826;53.572;10.170;2022-12-29T04:51:49;3.67;;;1.90;;
46090;SDS011;31826;53.572;10.170;2022-12-29T04:54:15;3.80;;;2.00;;
46090;SDS011;31826;53.572;10.170;2022-12-29T04:56:40;5.00;;;1.80;;
46090;SDS011;31826;53.572;10.170;2022-12-29T04:59:06;3.47;;;1.80;;
46090;SDS011;31826;53.572;10.170;2022-12-29T05:01:32;2.95;;;1.65;;
46090;SDS011;31826;53.572;10.170;2022-12-29T05:03:57;4.30;;;2.03;;
46090;SDS011;31826;53.572;10.170;2022-12-29T05:06:23;2.65;;;1.65;;
46090;SDS011;31826;53.572;10.170;2022-12-29T05:08:49;4.22;;;1.80;;
46090;SDS011;31826;53.572;10.170;2022-12-29T05:11:14;5.43;;;1.83;;
46090;SDS011;31826;53.572;10.170;2022-12-29T05:13:40;2.17;;;1.40;;
46090;SDS011;31826;53.572;10.170;2022-12-29T05:16:06;2.70;;;1.47;;
46090;SDS011;31826;53.572;10.170;2022-12-29T05:18:32;3.10;;;1.83;;
46090;SDS011;31826;53.572;10.170;2022-12-29T05:20:57;3.23;;;1.60;;
46090;SDS011;31826;53.572;10.170;2022-12-29T05:23:23;2.33;;;1.60;;
46090;SDS011;31826;53.572;10.170;2022-12-29T05:25:49;3.00;;;1.85;;
46090;SDS011;31826;53.572;10.170;2022-12-29T05:28:14;2.53;;;1.48;;
46090;SDS011;31826;53.572;10.170;2022-12-29T05:30:40;2.83;;;1.77;;
46090;SDS011;31826;53.572;10.170;2022-12-29T05:33:06;2.55;;;1.60;;
46090;SDS011;31826;53.572;10.170;2022-12-29T05:35:32;3.10;;;1.70;;
46090;SDS011;31826;53.572;10.170;2022-12-29T05:37:58;3.17;;;1.80;;
46090;SDS011;31826;53.572;10.170;2022-12-29T05:40:23;3.70;;;1.60;;
46090;SDS011;31826;53.572;10.170;2022-12-29T05:42:49;4.40;;;1.92;;
46090;SDS011;31826;53.572;10.170;2022-12-29T05:45:15;4.90;;;2.07;;
46090;SDS011;31826;53.572;10.170;2022-12-29T05:47:40;3.80;;;1.80;;
46090;SDS011;31826;53.572;10.170;2022-12-29T05:50:06;3.30;;;1.73;;
46090;SDS011;31826;53.572;10.170;2022-12-29T05:52:32;3.27;;;1.70;;
46090;SDS011;31826;53.572;10.170;2022-12-29T05:54:58;2.30;;;1.60;;
46090;SDS011;31826;53.572;10.170;2022-12-29T05:57:23;3.40;;;1.70;;
46090;SDS011;31826;53.572;10.170;2022-12-29T05:59:49;2.95;;;1.60;;
46090;SDS011;31826;53.572;10.170;2022-12-29T06:02:15;5.43;;;1.83;;
46090;SDS011;31826;53.572;10.170;2022-12-29T06:04:41;4.60;;;1.95;;
46090;SDS011;31826;53.572;10.170;2022-12-29T06:07:06;2.80;;;1.70;;
46090;SDS011;31826;53.572;10.170;2022-12-29T06:09:32;5.10;;;1.80;;
46090;SDS011;31826;53.572;10.170;2022-12-29T06:11:58;3.67;;;1.87;;
46090;SDS011;31826;53.572;10.170;2022-12-29T06:14:23;3.33;;;1.93;;
46090;SDS011;31826;53.572;10.170;2022-12-29T06:16:49;2.90;;;1.70;;
46090;SDS011;31826;53.572;10.170;2022-12-29T06:19:15;2.90;;;1.73;;
46090;SDS011;31826;53.572;10.170;2022-12-29T06:21:40;3.15;;;1.77;;
46090;SDS011;31826;53.572;10.170;2022-12-29T06:24:06;4.28;;;1.88;;
46090;SDS011;31826;53.572;10.170;2022-12-29T06:26:32;2.83;;;1.60;;
46090;SDS011;31826;53.572;10.170;2022-12-29T06:28:58;2.00;;;1.50;;
46090;SDS011;31826;53.572;10.170;2022-12-29T06:31:23;3.42;;;1.45;;
46090;SDS011;31826;53.572;10.170;2022-12-29T06:33:49;2.47;;;1.60;;
46090;SDS011;31826;53.572;10.170;2022-12-29T06:36:15;1.80;;;1.20;;
46090;SDS011;31826;53.572;10.170;2022-12-29T06:38:40;3.93;;;2.00;;
46090;SDS011;31826;53.572;10.170;2022-12-29T06:41:06;4.20;;;1.92;;
46090;SDS011;31826;53.572;10.170;2022-12-29T06:43:32;1.77;;;1.40;;
46090;SDS011;31826;53.572;10.170;2022-12-29T06:45:58;2.88;;;1.52;;
46090;SDS011;31826;53.572;10.170;2022-12-29T06:48:24;3.55;;;1.65;;
46090;SDS011;31826;53.572;10.170;2022-12-29T06:50:50;3.43;;;1.50;;
46090;SDS011;31826;53.572;10.170;2022-12-29T06:53:15;4.07;;;1.43;;
46090;SDS011;31826;53.572;10.170;2022-12-29T06:55:41;1.60;;;1.30;;
46090;SDS011;31826;53.572;10.170;2022-12-29T06:58:07;2.08;;;1.20;;
46090;SDS011;31826;53.572;10.170;2022-12-29T07:00:33;2.80;;;1.40;;
46090;SDS011;31826;53.572;10.170;2022-12-29T07:02:59;2.13;;;1.13;;
46090;SDS011;31826;53.572;10.170;2022-12-29T07:05:25;2.42;;;1.20;;
46090;SDS011;31826;53.572;10.170;2022-12-29T07:07:53;2.25;;;1.20;;
46090;SDS011;31826;53.572;10.170;2022-12-29T07:10:19;1.35;;;1.20;;
46090;SDS011;31826;53.572;10.170;2022-12-29T07:12:45;1.43;;;1.20;;
46090;SDS011;31826;53.572;10.170;2022-12-29T07:15:11;2.73;;;1.37;;
46090;SDS011;31826;53.572;10.170;2022-12-29T07:17:37;3.63;;;1.42;;
46090;SDS011;31826;53.572;10.170;2022-12-29T07:20:03;2.30;;;1.50;;
46090;SDS011;31826;53.572;10.170;2022-12-29T07:22:29;3.10;;;1.30;;
46090;SDS011;31826;53.572;10.170;2022-12-29T07:24:55;3.07;;;1.57;;
46090;SDS011;31826;53.572;10.170;2022-12-29T07:27:21;2.93;;;1.40;;
46090;SDS011;31826;53.572;10.170;2022-12-29T07:29:47;3.57;;;1.50;;
46090;SDS011;31826;53.572;10.170;2022-12-29T07:32:12;2.33;;;1.50;;
46090;SDS011;31826;53.572;10.170;2022-12-29T07:34:39;4.55;;;1.55;;
46090;SDS011;31826;53.572;10.170;2022-12-29T07:37:04;2.13;;;1.40;;
46090;SDS011;31826;53.572;10.170;2022-12-29T07:39:30;3.15;;;1.65;;
46090;SDS011;31826;53.572;10.170;2022-12-29T07:41:56;2.57;;;1.70;;
46090;SDS011;31826;53.572;10.170;2022-12-29T07:44:22;2.83;;;1.63;;
46090;SDS011;31826;53.572;10.170;2022-12-29T07:46:47;4.07;;;1.90;;
46090;SDS011;31826;53.572;10.170;2022-12-29T07:49:13;4.50;;;2.00;;
46090;SDS011;31826;53.572;10.170;2022-12-29T07:51:39;2.05;;;1.50;;
46090;SDS011;31826;53.572;10.170;2022-12-29T07:54:05;2.90;;;1.70;;
46090;SDS011;31826;53.572;10.170;2022-12-29T07:56:30;3.15;;;1.58;;
46090;SDS011;31826;53.572;10.170;2022-12-29T07:58:56;3.17;;;1.35;;
46090;SDS011;31826;53.572;10.170;2022-12-29T08:01:22;4.60;;;1.48;;
46090;SDS011;31826;53.572;10.170;2022-12-29T08:03:48;2.20;;;1.10;;
46090;SDS011;31826;53.572;10.170;2022-12-29T08:06:14;1.60;;;1.00;;
46090;SDS011;31826;53.572;10.170;2022-12-29T08:08:40;1.40;;;0.90;;
46090;SDS011;31826;53.572;10.170;2022-12-29T08:11:05;2.47;;;1.20;;
46090;SDS011;31826;53.572;10.170;2022-12-29T08:13:31;1.80;;;1.03;;
46090;SDS011;31826;53.572;10.170;2022-12-29T08:15:57;2.20;;;1.30;;
46090;SDS011;31826;53.572;10.170;2022-12-29T08:18:23;3.25;;;1.40;;
46090;SDS011;31826;53.572;10.170;2022-12-29T08:20:49;6.18;;;2.00;;
46090;SDS011;31826;53.572;10.170;2022-12-29T08:23:15;3.05;;;1.55;;
46090;SDS011;31826;53.572;10.170;2022-12-29T08:25:41;2.97;;;1.70;;
46090;SDS011;31826;53.572;10.170;2022-12-29T08:28:06;3.60;;;1.70;;
46090;SDS011;31826;53.572;10.170;2022-12-29T08:30:32;3.97;;;1.70;;
46090;SDS011;31826;53.572;10.170;2022-12-29T08:32:58;2.83;;;1.77;;
46090;SDS011;31826;53.572;10.170;2022-12-29T08:35:23;2.90;;;1.60;;
46090;SDS011;31826;53.572;10.170;2022-12-29T08:37:49;4.78;;;2.63;;
46090;SDS011;31826;53.572;10.170;2022-12-29T08:40:15;2.53;;;1.60;;
46090;SDS011;31826;53.572;10.170;2022-12-29T08:42:41;3.78;;;1.50;;
46090;SDS011;31826;53.572;10.170;2022-12-29T08:45:06;4.88;;;1.83;;
46090;SDS011;31826;53.572;10.170;2022-12-29T08:47:33;3.30;;;1.50;;
46090;SDS011;31826;53.572;10.170;2022-12-29T08:49:59;4.05;;;1.75;;
46090;SDS011;31826;53.572;10.170;2022-12-29T08:52:24;2.67;;;1.70;;
46090;SDS011;31826;53.572;10.170;2022-12-29T08:54:50;3.67;;;1.63;;
46090;SDS011;31826;53.572;10.170;2022-12-29T08:57:16;2.65;;;1.40;;
46090;SDS011;31826;53.572;10.170;2022-12-29T08:59:42;8.52;;;2.63;;
46090;SDS011;31826;53.572;10.170;2022-12-29T09:02:11;4.03;;;1.45;;
46090;SDS011;31826;53.572;10.170;2022-12-29T09:04:37;6.00;;;1.95;;
46090;SDS011;31826;53.572;10.170;2022-12-29T09:07:03;5.90;;;1.90;;
46090;SDS011;31826;53.572;10.170;2022-12-29T09:09:30;4.07;;;1.50;;
46090;SDS011;31826;53.572;10.170;2022-12-29T09:11:56;3.77;;;1.57;;
46090;SDS011;31826;53.572;10.170;2022-12-29T09:14:22;3.30;;;1.30;;
46090;SDS011;31826;53.572;10.170;2022-12-29T09:16:47;6.53;;;1.70;;
46090;SDS011;31826;53.572;10.170;2022-12-29T09:19:35;3.88;;;1.60;;
46090;SDS011;31826;53.572;10.170;2022-12-29T09:22:01;4.13;;;1.60;;
46090;SDS011;31826;53.572;10.170;2022-12-29T09:24:26;3.33;;;1.58;;
46090;SDS011;31826;53.572;10.170;2022-12-29T09:26:52;6.65;;;1.70;;
46090;SDS011;31826;53.572;10.170;2022-12-29T09:29:18;3.75;;;1.38;;
46090;SDS011;31826;53.572;10.170;2022-12-29T09:31:43;6.53;;;1.80;;
46090;SDS011;31826;53.572;10.170;2022-12-29T09:34:09;2.47;;;0.90;;
46090;SDS011;31826;53.572;10.170;2022-12-29T09:36:35;3.20;;;1.23;;
46090;SDS011;31826;53.572;10.170;2022-12-29T09:39:00;4.60;;;1.38;;
46090;SDS011;31826;53.572;10.170;2022-12-29T09:41:29;6.38;;;2.03;;
46090;SDS011;31826;53.572;10.170;2022-12-29T09:44:48;4.00;;;1.30;;
46090;SDS011;31826;53.572;10.170;2022-12-29T09:47:05;3.15;;;1.20;;
46090;SDS011;31826;53.572;10.170;2022-12-29T09:52:24;3.28;;;1.30;;
46090;SDS011;31826;53.572;10.170;2022-12-29T10:00:14;4.43;;;1.60;;
46090;SDS011;31826;53.572;10.170;2022-12-29T10:10:55;2.17;;;1.00;;
46090;SDS011;31826;53.572;10.170;2022-12-29T10:13:27;4.25;;;1.35;;
46090;SDS011;31826;53.572;10.170;2022-12-29T10:18:48;4.30;;;1.10;;
46090;SDS011;31826;53.572;10.170;2022-12-29T10:21:28;4.65;;;1.30;;
46090;SDS011;31826;53.572;10.170;2022-12-29T10:24:15;3.53;;;1.15;;
46090;SDS011;31826;53.572;10.170;2022-12-29T10:26:43;4.03;;;1.20;;
46090;SDS011;31826;53.572;10.170;2022-12-29T10:31:48;3.28;;;1.02;;
46090;SDS011;31826;53.572;10.170;2022-12-29T10:37:23;3.28;;;1.00;;
46090;SDS011;31826;53.572;10.170;2022-12-29T10:40:13;3.28;;;0.98;;
46090;SDS011;31826;53.572;10.170;2022-12-29T10:42:59;3.63;;;1.38;;
46090;SDS011;31826;53.572;10.170;2022-12-29T10:45:28;3.65;;;1.30;;
46090;SDS011;31826;53.572;10.170;2022-12-29T10:50:24;6.88;;;1.63;;
46090;SDS011;31826;53.572;10.170;2022-12-29T10:52:51;6.80;;;1.27;;
46090;SDS011;31826;53.572;10.170;2022-12-29T10:55:21;5.53;;;1.10;;
46090;SDS011;31826;53.572;10.170;2022-12-29T10:57:53;5.45;;;1.17;;
46090;SDS011;31826;53.572;10.170;2022-12-29T11:00:22;5.87;;;1.40;;
46090;SDS011;31826;53.572;10.170;2022-12-29T11:08:59;4.90;;;1.50;;
46090;SDS011;31826;53.572;10.170;2022-12-29T11:11:34;2.20;;;0.80;;
46090;SDS011;31826;53.572;10.170;2022-12-29T11:14:03;2.20;;;1.00;;
46090;SDS011;31826;53.572;10.170;2022-12-29T11:16:59;5.18;;;1.33;;
46090;SDS011;31826;53.572;10.170;2022-12-29T11:19:28;5.22;;;1.30;;
46090;SDS011;31826;53.572;10.170;2022-12-29T11:22:18;2.63;;;1.02;;
46090;SDS011;31826;53.572;10.170;2022-12-29T11:24:48;4.60;;;0.97;;
46090;SDS011;31826;53.572;10.170;2022-12-29T11:27:22;3.08;;;1.15;;
46090;SDS011;31826;53.572;10.170;2022-12-29T11:29:51;4.75;;;1.13;;
46090;SDS011;31826;53.572;10.170;2022-12-29T11:32:19;8.00;;;1.50;;
46090;SDS011;31826;53.572;10.170;2022-12-29T11:34:46;4.57;;;1.40;;
46090;SDS011;31826;53.572;10.170;2022-12-29T11:37:14;3.80;;;0.95;;
46090;SDS011;31826;53.572;10.170;2022-12-29T11:42:34;3.45;;;1.08;;
46090;SDS011;31826;53.572;10.170;2022-12-29T11:45:06;1.30;;;0.70;;
46090;SDS011;31826;53.572;10.170;2022-12-29T11:47:41;6.53;;;1.65;;
46090;SDS011;31826;53.572;10.170;2022-12-29T11:50:15;2.28;;;1.20;;
46090;SDS011;31826;53.572;10.170;2022-12-29T11:52:50;5.07;;;1.80;;
46090;SDS011;31826;53.572;10.170;2022-12-29T11:55:23;5.28;;;1.58;;
46090;SDS011;31826;53.572;10.170;2022-12-29T11:57:52;5.80;;;1.35;;
46090;SDS011;31826;53.572;10.170;2022-12-29T12:00:21;3.45;;;1.00;;
46090;SDS011;31826;53.572;10.170;2022-12-29T12:03:09;7.18;;;2.67;;
46090;SDS011;31826;53.572;10.170;2022-12-29T12:05:51;5.80;;;2.00;;
46090;SDS011;31826;53.572;10.170;2022-12-29T12:08:38;6.25;;;1.90;;
46090;SDS011;31826;53.572;10.170;2022-12-29T12:16:46;4.18;;;1.55;;
46090;SDS011;31826;53.572;10.170;2022-12-29T12:19:32;3.70;;;1.73;;
46090;SDS011;31826;53.572;10.170;2022-12-29T12:22:46;3.10;;;1.00;;
46090;SDS011;31826;53.572;10.170;2022-12-29T12:27:53;5.10;;;1.55;;
46090;SDS011;31826;53.572;10.170;2022-12-29T12:30:24;4.82;;;1.30;;
46090;SDS011;31826;53.572;10.170;2022-12-29T12:32:54;3.92;;;1.02;;
46090;SDS011;31826;53.572;10.170;2022-12-29T12:46:27;4.17;;;1.37;;
46090;SDS011;31826;53.572;10.170;2022-12-29T12:55:41;4.35;;;1.30;;
46090;SDS011;31826;53.572;10.170;2022-12-29T13:12:14;6.07;;;1.45;;
46090;SDS011;31826;53.572;10.170;2022-12-29T13:14:57;5.63;;;1.40;;
46090;SDS011;31826;53.572;10.170;2022-12-29T13:17:37;3.53;;;1.25;;
46090;SDS011;31826;53.572;10.170;2022-12-29T13:20:29;4.23;;;1.10;;
46090;SDS011;31826;53.572;10.170;2022-12-29T13:28:19;8.27;;;2.35;;
46090;SDS011;31826;53.572;10.170;2022-12-29T13:31:09;4.32;;;1.63;;
46090;SDS011;31826;53.572;10.170;2022-12-29T13:34:04;4.43;;;1.30;;
46090;SDS011;31826;53.572;10.170;2022-12-29T13:39:05;4.78;;;1.50;;
46090;SDS011;31826;53.572;10.170;2022-12-29T13:41:55;4.55;;;1.60;;
46090;SDS011;31826;53.572;10.170;2022-12-29T13:46:50;6.32;;;1.40;;
46090;SDS011;31826;53.572;10.170;2022-12-29T13:49:18;4.63;;;1.60;;
46090;SDS011;31826;53.572;10.170;2022-12-29T13:54:45;3.70;;;1.33;;
46090;SDS011;31826;53.572;10.170;2022-12-29T14:00:12;5.20;;;1.60;;
46090;SDS011;31826;53.572;10.170;2022-12-29T14:05:29;4.72;;;1.25;;
46090;SDS011;31826;53.572;10.170;2022-12-29T14:08:00;2.15;;;0.90;;
46090;SDS011;31826;53.572;10.170;2022-12-29T14:10:29;5.18;;;1.38;;
46090;SDS011;31826;53.572;10.170;2022-12-29T14:13:12;2.15;;;1.05;;
46090;SDS011;31826;53.572;10.170;2022-12-29T14:15:39;3.38;;;1.17;;
46090;SDS011;31826;53.572;10.170;2022-12-29T14:18:14;5.72;;;1.55;;
46090;SDS011;31826;53.572;10.170;2022-12-29T14:20:47;5.78;;;1.40;;
46090;SDS011;31826;53.572;10.170;2022-12-29T14:23:16;2.50;;;1.05;;
46090;SDS011;31826;53.572;10.170;2022-12-29T14:25:52;3.13;;;1.33;;
46090;SDS011;31826;53.572;10.170;2022-12-29T14:29:00;2.17;;;1.45;;
46090;SDS011;31826;53.572;10.170;2022-12-29T14:36:34;2.40;;;1.40;;
46090;SDS011;31826;53.572;10.170;2022-12-29T14:45:36;6.07;;;1.35;;
46090;SDS011;31826;53.572;10.170;2022-12-29T14:47:45;5.53;;;1.40;;
46090;SDS011;31826;53.572;10.170;2022-12-29T14:50:15;4.90;;;1.45;;
46090;SDS011;31826;53.572;10.170;2022-12-29T14:55:30;3.13;;;1.48;;
46090;SDS011;31826;53.572;10.170;2022-12-29T14:58:22;7.80;;;2.30;;
46090;SDS011;31826;53.572;10.170;2022-12-29T15:00:53;3.50;;;1.55;;
46090;SDS011;31826;53.572;10.170;2022-12-29T15:06:07;5.80;;;1.70;;
46090;SDS011;31826;53.572;10.170;2022-12-29T15:08:42;6.95;;;1.80;;
46090;SDS011;31826;53.572;10.170;2022-12-29T15:11:19;5.72;;;1.52;;
46090;SDS011;31826;53.572;10.170;2022-12-29T15:13:48;9.18;;;2.00;;
46090;SDS011;31826;53.572;10.170;2022-12-29T15:16:21;7.50;;;1.77;;
46090;SDS011;31826;53.572;10.170;2022-12-29T15:18:54;7.88;;;2.38;;
46090;SDS011;31826;53.572;10.170;2022-12-29T15:21:23;11.73;;;2.95;;
46090;SDS011;31826;53.572;10.170;2022-12-29T15:23:59;13.33;;;3.87;;
46090;SDS011;31826;53.572;10.170;2022-12-29T15:26:36;10.02;;;2.65;;
46090;SDS011;31826;53.572;10.170;2022-12-29T15:29:04;13.13;;;3.55;;
46090;SDS011;31826;53.572;10.170;2022-12-29T15:31:30;11.98;;;3.33;;
46090;SDS011;31826;53.572;10.170;2022-12-29T15:34:07;8.55;;;2.70;;
46090;SDS011;31826;53.572;10.170;2022-12-29T15:36:37;14.57;;;3.47;;
46090;SDS011;31826;53.572;10.170;2022-12-29T15:39:20;10.65;;;2.58;;
46090;SDS011;31826;53.572;10.170;2022-12-29T15:41:55;5.35;;;1.80;;
46090;SDS011;31826;53.572;10.170;2022-12-29T15:44:46;7.60;;;2.40;;
46090;SDS011;31826;53.572;10.170;2022-12-29T15:47:20;8.55;;;2.22;;
46090;SDS011;31826;53.572;10.170;2022-12-29T15:49:54;8.32;;;2.17;;
46090;SDS011;31826;53.572;10.170;2022-12-29T15:52:30;11.63;;;3.37;;
46090;SDS011;31826;53.572;10.170;2022-12-29T15:54:58;15.23;;;4.60;;
46090;SDS011;31826;53.572;10.170;2022-12-29T15:57:26;7.47;;;2.00;;
46090;SDS011;31826;53.572;10.170;2022-12-29T15:59:54;10.23;;;2.97;;
46090;SDS011;31826;53.572;10.170;2022-12-29T16:02:21;7.85;;;2.15;;
46090;SDS011;31826;53.572;10.170;2022-12-29T16:04:48;4.30;;;1.92;;
46090;SDS011;31826;53.572;10.170;2022-12-29T16:07:31;9.80;;;2.33;;
46090;SDS011;31826;53.572;10.170;2022-12-29T16:09:59;5.03;;;1.88;;
46090;SDS011;31826;53.572;10.170;2022-12-29T16:12:33;6.70;;;1.80;;
46090;SDS011;31826;53.572;10.170;2022-12-29T16:15:02;6.90;;;1.70;;
46090;SDS011;31826;53.572;10.170;2022-12-29T16:17:41;8.05;;;1.80;;
46090;SDS011;31826;53.572;10.170;2022-12-29T16:20:19;7.13;;;2.20;;
46090;SDS011;31826;53.572;10.170;2022-12-29T16:22:57;6.45;;;1.83;;
46090;SDS011;31826;53.572;10.170;2022-12-29T16:25:34;7.63;;;2.10;;
46090;SDS011;31826;53.572;10.170;2022-12-29T16:28:02;9.10;;;2.70;;
46090;SDS011;31826;53.572;10.170;2022-12-29T16:30:44;8.88;;;2.80;;
46090;SDS011;31826;53.572;10.170;2022-12-29T16:33:29;11.15;;;3.25;;
46090;SDS011;31826;53.572;10.170;2022-12-29T16:36:26;7.03;;;2.35;;
46090;SDS011;31826;53.572;10.170;2022-12-29T16:41:46;12.20;;;3.00;;
46090;SDS011;31826;53.572;10.170;2022-12-29T16:44:20;10.27;;;3.10;;
46090;SDS011;31826;53.572;10.170;2022-12-29T16:47:05;9.15;;;2.15;;
46090;SDS011;31826;53.572;10.170;2022-12-29T16:49:44;10.30;;;2.97;;
46090;SDS011;31826;53.572;10.170;2022-12-29T16:52:23;10.20;;;2.90;;
46090;SDS011;31826;53.572;10.170;2022-12-29T16:54:58;8.75;;;2.50;;
46090;SDS011;31826;53.572;10.170;2022-12-29T16:57:35;8.40;;;2.72;;
46090;SDS011;31826;53.572;10.170;2022-12-29T17:00:04;13.10;;;3.60;;
46090;SDS011;31826;53.572;10.170;2022-12-29T17:02:32;8.50;;;2.90;;
46090;SDS011;31826;53.572;10.170;2022-12-29T17:05:12;8.40;;;2.80;;
46090;SDS011;31826;53.572;10.170;2022-12-29T17:07:38;7.70;;;2.65;;
46090;SDS011;31826;53.572;10.170;2022-12-29T17:10:05;9.73;;;4.40;;
46090;SDS011;31826;53.572;10.170;2022-12-29T17:12:30;11.52;;;3.70;;
46090;SDS011;31826;53.572;10.170;2022-12-29T17:15:00;10.67;;;2.90;;
46090;SDS011;31826;53.572;10.170;2022-12-29T17:17:50;7.90;;;2.80;;
46090;SDS011;31826;53.572;10.170;2022-12-29T17:20:21;8.10;;;2.47;;
46090;SDS011;31826;53.572;10.170;2022-12-29T17:22:52;9.85;;;2.70;;
46090;SDS011;31826;53.572;10.170;2022-12-29T17:25:19;6.35;;;2.28;;
46090;SDS011;31826;53.572;10.170;2022-12-29T17:27:55;9.20;;;2.78;;
46090;SDS011;31826;53.572;10.170;2022-12-29T17:30:27;12.63;;;3.93;;
46090;SDS011;31826;53.572;10.170;2022-12-29T17:33:06;10.43;;;3.38;;
46090;SDS011;31826;53.572;10.170;2022-12-29T17:35:37;10.57;;;3.22;;